Time;durP1;ratioP1;P1;durP2;ratioP2;P2;SDS_P1;SDS_P2;PMS_P1;PMS_P2;Temp;Humidity;BMP_temperature;BMP_pressure;BME280_temperature;BME280_humidity;BME280_pressure;Samples;Min_cycle;Max_cycle;Signal;HPM_P1;HPM_P2
2022/06/22 00:02:20;;;;;;;8.18;4.45;;;28.00;1.00;;;;;;5138575;27;20108;-50
2022/06/22 00:04:59;;;;;;;4.88;4.18;;;28.10;1.00;;;;;;5153044;27;20015;-53
2022/06/22 00:07:44;;;;;;;7.63;4.18;;;28.00;1.00;;;;;;5132267;27;20463;-51
2022/06/22 00:10:30;;;;;;;7.88;4.50;;;28.00;1.00;;;;;;5154866;27;20035;-49
2022/06/22 00:12:58;;;;;;;4.82;3.50;;;28.10;1.00;;;;;;5153835;27;20015;-52
2022/06/22 00:15:39;;;;;;;5.28;4.22;;;28.20;1.00;;;;;;5154469;27;20439;-49
2022/06/22 00:18:24;;;;;;;5.32;3.85;;;27.90;1.00;;;;;;5143638;27;20038;-52
2022/06/22 00:20:52;;;;;;;5.05;3.90;;;28.20;1.00;;;;;;5133741;27;20039;-52
2022/06/22 00:23:34;;;;;;;5.97;3.88;;;28.00;1.00;;;;;;5145015;27;20027;-55
2022/06/22 00:26:26;;;;;;;7.10;3.75;;;28.20;1.00;;;;;;5115588;27;20055;-50
2022/06/22 00:29:04;;;;;;;7.68;4.35;;;28.00;1.00;;;;;;5151264;27;20552;-53
2022/06/22 00:31:38;;;;;;;6.75;3.63;;;28.20;1.00;;;;;;5154680;27;20027;-52
2022/06/22 00:34:03;;;;;;;;;;;28.10;1.00;;;;;;5155026;27;20027;-52
2022/06/22 00:36:41;;;;;;;5.40;3.92;;;28.00;1.00;;;;;;5154527;27;19903;-52
2022/06/22 00:39:46;;;;;;;6.35;4.28;;;28.10;1.00;;;;;;5140043;27;20027;-52
2022/06/22 00:42:14;;;;;;;6.28;3.45;;;28.10;1.00;;;;;;5152862;27;20046;-54
2022/06/22 00:44:51;;;;;;;5.93;4.07;;;28.00;1.00;;;;;;5154242;27;20104;-49
2022/06/22 00:47:45;;;;;;;6.47;3.65;;;28.20;1.00;;;;;;5153359;27;20475;-51
2022/06/22 00:50:20;;;;;;;8.32;4.07;;;27.90;1.00;;;;;;5154170;27;20079;-50
2022/06/22 00:53:14;;;;;;;5.72;3.47;;;27.90;1.00;;;;;;5153589;27;20103;-53
2022/06/22 00:55:41;;;;;;;4.50;3.53;;;27.80;1.00;;;;;;5149182;27;20035;-51
2022/06/22 00:58:20;;;;;;;5.68;4.05;;;27.60;1.00;;;;;;5143532;27;20027;-53
2022/06/22 01:00:58;;;;;;;8.20;4.55;;;27.70;1.00;;;;;;5150150;27;20073;-52
2022/06/22 01:03:31;;;;;;;4.32;3.92;;;27.80;1.00;;;;;;5153023;27;20039;-50
2022/06/22 01:06:04;;;;;;;6.93;3.58;;;27.90;1.00;;;;;;5154218;27;20103;-52
2022/06/22 01:08:47;;;;;;;6.55;3.72;;;27.80;1.00;;;;;;5152808;27;20026;-51
2022/06/22 01:14:22;;;;;;;4.43;3.75;;;27.80;1.00;;;;;;5152804;27;20591;-48
2022/06/22 01:16:51;;;;;;;5.88;4.38;;;27.80;1.00;;;;;;5135448;27;20026;-49
2022/06/22 01:19:45;;;;;;;4.72;4.22;;;27.80;1.00;;;;;;5153039;27;20019;-50
2022/06/22 01:22:51;;;;;;;6.65;4.20;;;28.00;1.00;;;;;;5142674;27;22474;-51
2022/06/22 01:25:40;;;;;;;4.43;4.07;;;27.80;1.00;;;;;;5119043;27;20030;-53
2022/06/22 01:28:09;;;;;;;6.63;4.15;;;27.80;1.00;;;;;;5145416;27;20133;-52
2022/06/22 01:30:43;;;;;;;6.40;4.22;;;27.60;1.00;;;;;;5153537;27;20364;-49
2022/06/22 01:33:38;;;;;;;9.70;4.35;;;27.50;1.00;;;;;;5145871;27;20483;-52
2022/06/22 01:36:31;;;;;;;5.18;4.70;;;27.60;1.00;;;;;;5126369;27;20425;-51
2022/06/22 01:38:57;;;;;;;6.25;4.10;;;27.50;1.00;;;;;;5149369;27;20039;-52
2022/06/22 01:41:52;;;;;;;8.23;4.28;;;27.70;1.00;;;;;;5153942;27;20080;-50
2022/06/22 01:44:39;;;;;;;5.43;4.65;;;27.70;1.00;;;;;;5150249;27;20034;-51
2022/06/22 01:57:20;;;;;;;5.57;4.38;;;27.50;1.00;;;;;;5142050;27;20034;-53
2022/06/22 02:00:01;;;;;;;6.13;4.53;;;27.70;1.00;;;;;;5131515;27;20032;-49
2022/06/22 02:02:38;;;;;;;7.65;4.40;;;27.70;1.00;;;;;;5151573;27;20038;-53
2022/06/22 02:05:29;;;;;;;11.30;4.63;;;27.70;1.00;;;;;;5153707;27;20102;-53
2022/06/22 02:08:01;;;;;;;5.88;4.88;;;27.60;1.00;;;;;;5155548;27;20029;-54
2022/06/22 02:10:52;;;;;;;6.43;4.60;;;27.60;1.00;;;;;;5157071;27;20503;-51
2022/06/22 02:13:39;;;;;;;6.68;4.57;;;27.80;1.00;;;;;;5143622;27;20030;-53
2022/06/22 02:16:26;;;;;;;4.63;4.32;;;27.70;1.00;;;;;;5156392;27;20468;-51
2022/06/22 02:18:58;;;;;;;6.68;4.28;;;27.60;1.00;;;;;;5157546;27;20026;-51
2022/06/22 02:21:23;;;;;;;11.02;4.30;;;27.70;1.00;;;;;;5146760;27;20030;-52
2022/06/22 02:24:04;;;;;;;4.75;4.45;;;28.00;1.00;;;;;;5142979;27;20045;-50
2022/06/22 02:26:38;;;;;;;4.82;4.40;;;27.80;1.00;;;;;;5143175;27;20375;-53
2022/06/22 02:29:04;;;;;;;8.07;4.10;;;27.80;1.00;;;;;;5142245;27;20023;-53
2022/06/22 02:31:31;;;;;;;5.45;4.40;;;27.70;1.00;;;;;;5149078;27;20033;-51
2022/06/22 02:33:57;;;;;;;5.78;4.03;;;27.60;1.00;;;;;;5156871;27;20373;-49
2022/06/22 02:36:30;;;;;;;6.55;4.57;;;27.60;1.00;;;;;;5155786;27;20027;-49
2022/06/22 02:39:01;;;;;;;5.45;4.07;;;27.50;1.00;;;;;;5156930;27;20018;-48
2022/06/22 02:44:31;;;;;;;8.05;4.60;;;27.60;1.00;;;;;;5144675;27;20560;-48
2022/06/22 02:47:02;;;;;;;6.65;4.28;;;27.50;1.00;;;;;;5154916;27;20419;-53
2022/06/22 02:49:35;;;;;;;5.57;4.05;;;27.50;1.00;;;;;;5155422;27;20019;-52
2022/06/22 02:52:03;;;;;;;4.68;4.28;;;27.80;1.00;;;;;;5154945;27;20030;-52
2022/06/22 02:54:42;;;;;;;4.80;4.35;;;27.60;1.00;;;;;;5156393;27;20054;-50
2022/06/22 02:57:46;;;;;;;4.35;4.05;;;27.70;1.00;;;;;;5155418;27;20034;-50
2022/06/22 03:00:14;;;;;;;4.10;3.70;;;27.60;1.00;;;;;;5156592;27;20027;-54
2022/06/22 03:02:41;;;;;;;5.55;3.90;;;27.60;1.00;;;;;;5152960;27;20551;-51
2022/06/22 03:05:08;;;;;;;5.07;3.88;;;27.50;1.00;;;;;;5156381;27;20368;-54
2022/06/22 03:07:40;;;;;;;4.22;3.72;;;27.40;1.00;;;;;;5141784;27;20106;-50
2022/06/22 03:10:07;;;;;;;6.00;3.83;;;27.60;1.00;;;;;;5155966;27;20069;-51
2022/06/22 03:12:33;;;;;;;5.72;3.92;;;27.60;1.00;;;;;;5155681;27;20095;-48
2022/06/22 03:15:05;;;;;;;5.85;4.45;;;27.60;1.00;;;;;;5156093;27;20468;-51
2022/06/22 03:17:35;;;;;;;5.65;4.10;;;27.50;1.00;;;;;;5145805;27;20066;-51
2022/06/22 03:20:12;;;;;;;8.32;3.92;;;27.50;1.00;;;;;;5150281;27;20383;-52
2022/06/22 03:22:46;;;;;;;6.88;4.20;;;27.60;1.00;;;;;;5148747;27;20101;-52
2022/06/22 03:25:31;;;;;;;4.85;4.30;;;27.50;1.00;;;;;;5150237;27;20025;-50
2022/06/22 03:28:04;;;;;;;5.05;4.07;;;27.70;1.00;;;;;;5149628;27;20026;-52
2022/06/22 03:31:05;;;;;;;4.80;3.40;;;27.70;1.00;;;;;;5150718;27;20071;-54
2022/06/22 03:33:38;;;;;;;5.53;4.50;;;27.70;1.00;;;;;;5151906;27;20026;-51
2022/06/22 03:36:30;;;;;;;4.32;3.92;;;27.60;1.00;;;;;;5154030;27;20014;-51
2022/06/22 03:39:05;;;;;;;6.10;4.20;;;27.50;1.00;;;;;;5151389;27;20063;-49
2022/06/22 03:41:35;;;;;;;4.93;4.30;;;27.50;1.00;;;;;;5155511;27;20023;-48
2022/06/22 03:44:33;;;;;;;4.60;3.70;;;27.40;1.00;;;;;;5149074;27;20473;-52
2022/06/22 03:47:09;;;;;;;5.57;4.07;;;27.30;1.00;;;;;;5127287;27;20035;-52
2022/06/22 03:49:45;;;;;;;7.43;4.10;;;27.20;1.00;;;;;;5154751;27;20031;-49
2022/06/22 03:52:31;;;;;;;6.30;4.03;;;27.30;1.00;;;;;;5150226;27;20033;-53
2022/06/22 03:55:06;;;;;;;4.97;4.30;;;27.20;1.00;;;;;;5144427;27;20035;-51
2022/06/22 03:57:36;;;;;;;4.65;3.95;;;27.20;1.00;;;;;;5137859;27;20118;-50
2022/06/22 04:00:04;;;;;;;5.82;3.92;;;27.10;1.00;;;;;;5155053;27;20018;-51
2022/06/22 04:02:30;;;;;;;6.72;4.40;;;27.20;1.00;;;;;;5153627;27;20484;-48
2022/06/22 04:04:58;;;;;;;5.18;3.70;;;27.30;1.00;;;;;;5149487;27;20047;-48
2022/06/22 04:07:26;;;;;;;5.28;3.90;;;27.40;1.00;;;;;;5148228;27;20522;-50
2022/06/22 04:09:55;;;;;;;5.20;4.35;;;27.30;1.00;;;;;;5140208;27;20475;-54
2022/06/22 04:12:39;;;;;;;5.95;4.28;;;27.30;1.00;;;;;;5155026;27;20444;-53
2022/06/22 04:15:32;;;;;;;5.78;4.05;;;27.30;1.00;;;;;;5132754;27;20114;-52
2022/06/22 04:18:08;;;;;;;7.43;4.43;;;27.20;1.00;;;;;;5150199;27;20038;-48
2022/06/22 04:20:53;;;;;;;4.25;3.58;;;27.20;1.00;;;;;;5153749;27;20030;-52
2022/06/22 04:23:43;;;;;;;5.57;4.32;;;27.30;1.00;;;;;;5152060;27;20101;-53
2022/06/22 04:26:15;;;;;;;6.07;4.82;;;27.20;1.00;;;;;;5154517;27;20064;-53
2022/06/22 04:28:45;;;;;;;7.97;4.60;;;27.30;1.00;;;;;;5143287;27;20030;-52
2022/06/22 04:31:28;;;;;;;4.88;4.47;;;27.30;1.00;;;;;;5154504;27;20480;-52
2022/06/22 04:34:30;;;;;;;9.07;4.55;;;27.40;1.00;;;;;;5144996;27;20042;-49
2022/06/22 04:36:57;;;;;;;5.72;4.28;;;27.40;1.00;;;;;;5148171;27;20030;-47
2022/06/22 04:39:35;;;;;;;8.63;4.05;;;27.40;1.00;;;;;;5136075;27;20103;-50
2022/06/22 04:42:02;;;;;;;7.60;4.57;;;27.40;1.00;;;;;;5152724;27;20031;-52
2022/06/22 04:44:31;;;;;;;6.90;4.72;;;27.50;1.00;;;;;;5142444;27;20414;-48
2022/06/22 04:47:15;;;;;;;5.32;4.80;;;27.40;1.00;;;;;;5151723;27;20034;-50
2022/06/22 04:50:05;;;;;;;8.20;4.40;;;27.50;1.00;;;;;;5139270;27;20071;-50
2022/06/22 04:52:36;;;;;;;6.25;4.30;;;27.50;1.00;;;;;;5141268;27;20026;-53
2022/06/22 04:55:05;;;;;;;5.00;4.13;;;27.50;1.00;;;;;;5153392;27;20471;-52
2022/06/22 04:57:34;;;;;;;8.32;4.10;;;27.60;1.00;;;;;;5153882;27;20021;-49
2022/06/22 05:00:04;;;;;;;10.75;4.68;;;27.60;1.00;;;;;;5138667;27;20059;-50
2022/06/22 05:02:35;;;;;;;6.43;4.32;;;27.50;1.00;;;;;;5131727;27;20057;-50
2022/06/22 05:05:19;;;;;;;6.53;4.70;;;27.60;1.00;;;;;;5152569;27;20027;-48
2022/06/22 05:08:17;;;;;;;4.53;3.90;;;27.70;1.00;;;;;;5153356;27;20052;-49
2022/06/22 05:10:51;;;;;;;7.35;4.72;;;27.50;1.00;;;;;;5134399;27;20038;-46
2022/06/22 05:13:28;;;;;;;8.27;4.30;;;27.50;1.00;;;;;;5152082;27;20026;-47
2022/06/22 05:15:56;;;;;;;8.73;4.15;;;27.60;1.00;;;;;;5134161;27;20365;-47
2022/06/22 05:18:25;;;;;;;6.93;4.18;;;27.60;1.00;;;;;;5140178;27;20038;-46
2022/06/22 05:20:58;;;;;;;16.15;4.55;;;27.50;1.00;;;;;;5149911;27;20087;-47
2022/06/22 05:23:26;;;;;;;7.40;4.03;;;27.60;1.00;;;;;;5139917;27;20042;-48
2022/06/22 05:25:55;;;;;;;6.57;4.10;;;27.70;1.00;;;;;;5153652;27;20118;-47
2022/06/22 05:28:43;;;;;;;9.35;4.38;;;27.80;1.00;;;;;;5152693;27;20440;-47
2022/06/22 05:31:15;;;;;;;6.55;4.50;;;27.80;1.00;;;;;;5153659;27;20021;-47
2022/06/22 05:33:46;;;;;;;8.85;4.72;;;27.60;1.00;;;;;;5152516;27;20057;-50
2022/06/22 05:36:14;;;;;;;7.93;4.22;;;27.60;1.00;;;;;;5153717;27;20099;-47
2022/06/22 05:38:47;;;;;;;7.50;3.85;;;27.80;1.00;;;;;;5151738;27;20452;-47
2022/06/22 05:41:17;;;;;;;12.95;4.28;;;27.60;1.00;;;;;;5153640;27;20027;-47
2022/06/22 05:43:43;;;;;;;10.30;4.75;;;27.50;1.00;;;;;;5153666;27;20031;-47
2022/06/22 05:46:10;;;;;;;6.20;4.22;;;27.70;1.00;;;;;;5157826;27;20030;-47
2022/06/22 05:48:48;;;;;;;5.25;4.13;;;27.70;1.00;;;;;;5155820;27;20588;-47
2022/06/22 05:51:31;;;;;;;7.68;4.70;;;27.70;1.00;;;;;;5157879;27;20087;-49
2022/06/22 05:54:05;;;;;;;7.15;4.60;;;27.80;1.00;;;;;;5152257;27;20019;-47
2022/06/22 05:56:46;;;;;;;5.70;4.25;;;27.80;1.00;;;;;;5157571;27;20484;-50
2022/06/22 05:59:34;;;;;;;7.53;4.47;;;27.80;1.00;;;;;;5156664;27;20102;-49
2022/06/22 06:02:10;;;;;;;5.18;4.63;;;27.80;1.00;;;;;;5157706;27;20075;-48
2022/06/22 06:05:09;;;;;;;5.35;4.82;;;27.80;1.00;;;;;;5150654;27;20449;-47
2022/06/22 06:07:48;;;;;;;7.43;4.43;;;27.90;1.00;;;;;;5108651;27;20063;-53
2022/06/22 06:10:38;;;;;;;9.00;4.70;;;28.00;1.00;;;;;;5154856;27;20130;-47
2022/06/22 06:13:15;;;;;;;11.32;5.72;;;28.10;1.00;;;;;;5147997;27;20023;-50
2022/06/22 06:15:41;;;;;;;9.00;6.10;;;28.00;1.00;;;;;;5153943;27;20031;-47
2022/06/22 06:18:14;;;;;;;12.55;6.15;;;28.10;1.00;;;;;;5155681;27;20007;-49
2022/06/22 06:20:43;;;;;;;7.28;6.45;;;28.10;1.00;;;;;;5157257;27;20114;-48
2022/06/22 06:23:21;;;;;;;7.30;6.55;;;28.10;1.00;;;;;;5152315;27;20034;-51
2022/06/22 06:28:44;;;;;;;8.30;5.88;;;28.20;1.00;;;;;;5144706;27;20037;-49
2022/06/22 06:31:29;;;;;;;10.18;6.85;;;28.00;1.00;;;;;;5156052;27;20430;-52
2022/06/22 06:33:57;;;;;;;11.40;6.88;;;27.80;1.00;;;;;;5152920;27;20014;-49
2022/06/22 06:36:32;;;;;;;10.23;6.82;;;27.80;1.00;;;;;;5155961;27;20022;-49
2022/06/22 06:39:08;;;;;;;8.48;6.45;;;27.80;1.00;;;;;;5156323;27;20058;-48
2022/06/22 06:41:42;;;;;;;9.13;7.63;;;27.80;1.00;;;;;;5156592;27;20026;-51
2022/06/22 06:44:11;;;;;;;6.82;6.13;;;27.80;1.00;;;;;;5148166;27;20433;-49
2022/06/22 06:46:51;;;;;;;12.48;7.70;;;27.80;1.00;;;;;;5156679;27;20544;-53
2022/06/22 06:49:33;;;;;;;10.50;7.90;;;27.90;1.00;;;;;;5155484;27;20516;-54
2022/06/22 06:52:20;;;;;;;12.10;9.68;;;27.80;1.00;;;;;;5156458;27;20053;-54
2022/06/22 06:54:48;;;;;;;14.10;9.30;;;27.80;1.00;;;;;;5143628;27;20054;-54
2022/06/22 06:57:16;;;;;;;10.38;9.13;;;27.60;1.00;;;;;;5169343;27;21465;-53
2022/06/22 06:59:44;;;;;;;15.25;9.20;;;27.60;1.00;;;;;;5141824;27;20468;-51
2022/06/22 07:02:27;;;;;;;12.10;10.23;;;27.80;1.00;;;;;;5145458;27;20034;-53
2022/06/22 07:04:52;;;;;;;15.50;10.38;;;27.40;1.00;;;;;;5145756;27;20100;-49
2022/06/22 07:07:39;;;;;;;16.60;11.80;;;27.00;10.10;;;;;;5148528;27;20420;-54
2022/06/22 07:10:14;;;;;;;12.55;11.25;;;26.50;20.60;;;;;;5147721;27;20599;-53
2022/06/22 07:12:59;;;;;;;14.98;12.32;;;26.20;19.40;;;;;;5151400;27;20060;-54
2022/06/22 07:15:33;;;;;;;20.85;13.60;;;26.20;29.30;;;;;;5154725;27;20023;-53
2022/06/22 07:18:03;;;;;;;15.48;13.85;;;26.30;9.00;;;;;;5156221;27;20348;-51
2022/06/22 07:20:34;;;;;;;15.30;13.38;;;26.40;7.60;;;;;;5154739;27;20014;-54
2022/06/22 07:23:10;;;;;;;15.73;14.25;;;26.30;6.20;;;;;;5141976;27;20034;-54
2022/06/22 07:25:46;;;;;;;16.65;14.52;;;26.40;7.10;;;;;;5154734;27;20058;-48
2022/06/22 07:28:14;;;;;;;16.65;15.15;;;26.40;8.00;;;;;;5142747;27;20067;-48
2022/06/22 07:30:47;;;;;;;17.10;15.38;;;26.50;5.30;;;;;;5147676;27;20178;-51
2022/06/22 07:33:20;;;;;;;19.60;16.92;;;26.50;5.60;;;;;;5141620;27;20042;-53
2022/06/22 07:35:59;;;;;;;18.07;16.33;;;26.60;6.10;;;;;;5155171;27;20048;-49
2022/06/22 07:38:43;;;;;;;18.85;16.25;;;26.80;3.60;;;;;;5154561;27;20030;-49
2022/06/22 07:41:20;;;;;;;;;;;26.70;4.50;;;;;;5144802;27;20097;-51
2022/06/22 07:44:06;;;;;;;19.50;15.80;;;26.80;5.50;;;;;;5154474;27;19919;-53
2022/06/22 07:47:01;;;;;;;16.48;14.95;;;26.90;5.40;;;;;;5142688;27;20019;-52
2022/06/22 07:49:36;;;;;;;18.48;16.67;;;26.90;3.40;;;;;;5147713;27;20095;-48
2022/06/22 07:52:13;;;;;;;16.92;15.20;;;27.00;2.10;;;;;;5141767;27;20106;-50
2022/06/22 07:54:57;;;;;;;22.40;16.98;;;26.90;2.00;;;;;;5153781;27;20026;-51
2022/06/22 07:57:31;;;;;;;;;;;26.90;1.30;;;;;;5155494;27;20037;-52
2022/06/22 08:00:12;;;;;;;23.35;17.58;;;26.90;2.60;;;;;;5139073;27;19918;-52
2022/06/22 08:03:04;;;;;;;19.55;16.75;;;27.10;1.00;;;;;;5154699;27;20038;-53
2022/06/22 08:05:35;;;;;;;18.33;16.25;;;27.00;1.10;;;;;;5153324;27;20023;-52
2022/06/22 08:08:06;;;;;;;19.55;17.13;;;27.00;1.00;;;;;;5154171;27;20094;-54
2022/06/22 08:10:39;;;;;;;18.98;16.90;;;27.30;1.00;;;;;;5153568;27;20072;-54
2022/06/22 08:13:16;;;;;;;21.88;17.35;;;27.10;1.00;;;;;;5155067;27;20026;-50
2022/06/22 08:16:03;;;;;;;17.70;15.82;;;27.30;1.60;;;;;;5153652;27;20121;-51
2022/06/22 08:18:29;;;;;;;20.27;17.05;;;27.10;1.80;;;;;;5154782;27;20106;-50
2022/06/22 08:20:57;;;;;;;19.40;17.35;;;27.00;1.20;;;;;;5147444;27;20073;-50
2022/06/22 08:23:34;;;;;;;18.30;16.30;;;27.40;1.80;;;;;;5146026;27;20030;-49
2022/06/22 08:26:04;;;;;;;20.05;17.83;;;27.40;3.10;;;;;;5153859;27;20027;-52
2022/06/22 08:28:33;;;;;;;19.40;17.35;;;27.50;2.50;;;;;;5154406;27;20050;-52
2022/06/22 08:30:59;;;;;;;20.27;17.00;;;27.40;2.60;;;;;;5153232;27;20117;-51
2022/06/22 08:33:36;;;;;;;21.42;15.60;;;27.60;1.60;;;;;;5153725;27;20406;-50
2022/06/22 08:36:19;;;;;;;19.73;17.80;;;27.80;1.30;;;;;;5146138;27;20088;-49
2022/06/22 08:38:52;;;;;;;19.10;17.20;;;27.60;1.00;;;;;;5132149;27;20023;-47
2022/06/22 08:41:51;;;;;;;17.60;15.90;;;27.80;1.00;;;;;;5154611;27;20019;-49
2022/06/22 08:44:44;;;;;;;18.75;16.25;;;27.90;1.00;;;;;;5152865;27;20045;-57
2022/06/22 08:47:17;;;;;;;17.35;15.50;;;27.80;1.00;;;;;;5148914;27;20034;-56
2022/06/22 08:49:48;;;;;;;16.70;14.98;;;27.90;1.00;;;;;;5153439;27;20105;-56
2022/06/22 08:53:02;;;;;;;17.88;16.25;;;27.70;1.00;;;;;;5153674;27;20544;-58
2022/06/22 08:55:57;;;;;;;17.10;15.48;;;27.80;1.00;;;;;;5147477;27;20087;-58
2022/06/22 08:58:35;;;;;;;17.23;15.32;;;27.90;1.00;;;;;;5137767;27;20038;-58
2022/06/22 09:01:01;;;;;;;18.08;16.23;;;28.10;1.00;;;;;;5136179;27;20038;-58
2022/06/22 09:03:47;;;;;;;16.75;14.70;;;28.20;1.00;;;;;;5152971;27;20031;-59
2022/06/22 09:06:24;;;;;;;16.98;15.20;;;28.30;1.00;;;;;;5153496;27;20488;-57
2022/06/22 09:08:58;;;;;;;17.60;15.00;;;28.50;1.00;;;;;;5152834;27;20501;-56
2022/06/22 09:11:31;;;;;;;17.33;15.77;;;28.50;1.00;;;;;;5153665;27;20428;-57
2022/06/22 09:14:15;;;;;;;18.55;16.70;;;28.40;1.00;;;;;;5152567;27;20431;-56
2022/06/22 09:17:01;;;;;;;18.63;16.80;;;28.40;1.00;;;;;;5153057;27;20079;-57
2022/06/22 09:19:44;;;;;;;23.65;21.40;;;28.40;1.00;;;;;;5138121;27;20027;-57
2022/06/22 09:22:29;;;;;;;21.93;19.80;;;28.70;1.00;;;;;;5149353;27;20030;-59
2022/06/22 09:25:08;;;;;;;17.38;15.65;;;28.30;1.00;;;;;;5146834;27;20110;-56
2022/06/22 09:27:47;;;;;;;15.18;13.70;;;28.70;1.00;;;;;;5146575;27;20137;-51
2022/06/22 09:30:28;;;;;;;16.10;14.10;;;28.50;1.00;;;;;;5143866;27;20031;-55
2022/06/22 09:32:54;;;;;;;17.45;14.45;;;28.70;1.00;;;;;;5152455;27;20026;-56
2022/06/22 09:35:38;;;;;;;16.38;14.85;;;28.80;1.00;;;;;;5152246;27;20045;-54
2022/06/22 09:38:35;;;;;;;19.30;16.75;;;28.80;1.00;;;;;;5153445;27;20368;-56
2022/06/22 09:41:12;;;;;;;17.77;15.95;;;28.80;1.00;;;;;;5143302;27;20027;-55
2022/06/22 09:43:40;;;;;;;17.65;15.93;;;28.90;1.00;;;;;;5147929;27;20038;-52
2022/06/22 09:46:37;;;;;;;18.60;16.73;;;28.80;1.00;;;;;;5151044;27;20051;-55
2022/06/22 09:49:47;;;;;;;19.92;17.55;;;28.60;1.00;;;;;;5151982;27;20027;-57
2022/06/22 09:52:30;;;;;;;17.35;15.60;;;28.70;1.00;;;;;;5153038;27;20118;-56
2022/06/22 09:58:49;;;;;;;20.60;18.08;;;28.90;1.00;;;;;;5142366;27;20033;-55
2022/06/22 10:01:14;;;;;;;21.73;19.58;;;29.10;1.00;;;;;;5151743;27;20070;-53
2022/06/22 10:03:42;;;;;;;19.58;17.63;;;29.10;1.00;;;;;;5152669;27;20042;-53
2022/06/22 10:06:10;;;;;;;18.65;16.80;;;29.10;1.00;;;;;;5147078;27;20019;-55
2022/06/22 10:08:42;;;;;;;16.90;15.15;;;29.20;1.00;;;;;;5152945;27;20073;-51
2022/06/22 10:11:26;;;;;;;18.45;16.55;;;29.20;1.00;;;;;;5141414;27;20042;-51
2022/06/22 10:14:08;;;;;;;19.00;17.00;;;29.30;1.00;;;;;;5152895;27;20050;-55
2022/06/22 10:16:43;;;;;;;21.23;19.00;;;29.30;1.00;;;;;;5149958;27;20540;-56
2022/06/22 10:19:18;;;;;;;20.88;17.98;;;29.30;1.00;;;;;;5151012;27;20486;-56
2022/06/22 10:22:01;;;;;;;20.73;18.75;;;29.40;1.00;;;;;;5144152;27;20027;-56
2022/06/22 10:24:36;;;;;;;19.77;17.40;;;29.40;1.00;;;;;;5139357;27;20465;-56
2022/06/22 10:27:38;;;;;;;21.27;19.15;;;29.60;1.00;;;;;;5152156;27;20377;-56
2022/06/22 10:30:10;;;;;;;20.42;18.23;;;29.50;1.00;;;;;;5147278;27;20034;-55
2022/06/22 10:32:56;;;;;;;18.65;16.70;;;29.70;1.00;;;;;;5154440;27;20026;-56
2022/06/22 10:35:31;;;;;;;19.40;17.33;;;29.70;1.00;;;;;;5155833;27;20083;-56
2022/06/22 10:38:05;;;;;;;17.52;15.75;;;29.70;1.00;;;;;;5134554;27;20477;-56
2022/06/22 10:47:12;;;;;;;18.63;16.92;;;30.00;1.00;;;;;;5150230;27;20065;-51
2022/06/22 10:50:13;;;;;;;17.77;15.20;;;30.00;1.00;;;;;;5149168;27;20492;-53
2022/06/22 10:53:06;;;;;;;19.02;14.88;;;30.10;1.00;;;;;;5138260;27;20113;-52
2022/06/22 10:55:49;;;;;;;18.05;16.33;;;30.30;1.00;;;;;;5152464;27;20033;-49
2022/06/22 10:58:21;;;;;;;21.20;18.55;;;30.20;1.00;;;;;;5151511;27;20030;-52
2022/06/22 11:00:55;;;;;;;19.63;17.77;;;30.20;1.00;;;;;;5154129;27;20030;-51
2022/06/22 11:03:44;;;;;;;23.13;20.70;;;30.30;1.00;;;;;;5148707;27;20441;-48
2022/06/22 11:06:16;;;;;;;18.73;17.02;;;30.30;1.00;;;;;;5152189;27;20019;-50
2022/06/22 11:08:51;;;;;;;19.75;17.92;;;30.50;1.00;;;;;;5156278;27;20065;-52
2022/06/22 11:11:35;;;;;;;20.27;18.38;;;30.60;1.00;;;;;;5154976;27;20055;-49
2022/06/22 11:14:09;;;;;;;20.35;16.98;;;30.70;1.00;;;;;;5144028;27;20425;-49
2022/06/22 11:16:46;;;;;;;20.45;18.48;;;30.60;1.00;;;;;;5154085;27;20019;-47
2022/06/22 11:19:30;;;;;;;17.33;15.77;;;30.70;1.00;;;;;;5156373;27;20413;-48
2022/06/22 11:22:18;;;;;;;16.48;14.93;;;30.70;1.00;;;;;;5154824;27;20053;-47
2022/06/22 11:25:08;;;;;;;15.35;13.95;;;31.50;1.00;;;;;;5155753;27;20499;-48
2022/06/22 11:30:56;;;;;;;14.52;13.07;;;32.40;1.00;;;;;;5153907;27;20122;-50
2022/06/22 11:33:34;;;;;;;17.20;15.55;;;32.30;1.00;;;;;;5153693;27;20026;-47
2022/06/22 11:36:21;;;;;;;17.38;15.57;;;32.00;1.00;;;;;;5139552;27;20034;-49
2022/06/22 11:39:13;;;;;;;17.95;14.52;;;31.70;1.00;;;;;;5151563;27;20069;-55
2022/06/22 11:41:50;;;;;;;19.73;17.50;;;31.70;1.00;;;;;;5154038;27;20042;-47
2022/06/22 11:45:49;;;;;;;14.85;13.25;;;31.70;1.00;;;;;;5140681;27;20027;-49
2022/06/22 11:47:38;;;;;;;16.48;14.73;;;31.90;1.00;;;;;;5141269;27;20053;-51
2022/06/22 11:50:06;;;;;;;15.70;14.50;;;31.80;1.00;;;;;;5147684;27;20023;-49
2022/06/22 11:53:00;;;;;;;21.60;17.50;;;31.40;1.00;;;;;;5146997;27;20035;-48
2022/06/22 11:55:52;;;;;;;;;;;31.10;1.00;;;;;;5151523;27;20023;-52
2022/06/22 11:58:23;;;;;;;15.52;14.18;;;31.00;1.00;;;;;;5145533;27;19911;-52
2022/06/22 12:01:20;;;;;;;18.50;15.05;;;30.80;1.00;;;;;;5153133;27;20026;-51
2022/06/22 12:04:16;;;;;;;14.18;12.68;;;30.70;1.00;;;;;;5149748;27;20045;-56
2022/06/22 12:07:19;;;;;;;22.73;17.15;;;30.60;1.00;;;;;;5145589;27;20436;-54
2022/06/22 12:10:15;;;;;;;17.58;14.35;;;30.60;1.00;;;;;;5153239;27;20056;-52
2022/06/22 12:13:00;;;;;;;16.05;14.15;;;30.40;1.00;;;;;;5148172;27;20094;-50
2022/06/22 12:15:52;;;;;;;14.45;12.98;;;30.60;1.00;;;;;;5143529;27;20476;-48
2022/06/22 12:18:39;;;;;;;14.35;11.90;;;30.70;1.00;;;;;;5152771;27;20011;-48
2022/06/22 12:21:39;;;;;;;15.65;14.18;;;30.70;1.00;;;;;;5152590;27;20087;-50
2022/06/22 12:24:28;;;;;;;14.43;13.25;;;30.80;1.00;;;;;;5150124;27;20395;-50
2022/06/22 12:27:32;;;;;;;12.70;11.40;;;30.50;1.00;;;;;;5150734;27;20126;-54
2022/06/22 12:30:37;;;;;;;17.02;13.30;;;30.60;1.00;;;;;;5154869;27;20023;-49
2022/06/22 12:33:05;;;;;;;;;;;30.50;1.00;;;;;;5153580;27;20018;-51
2022/06/22 12:35:38;;;;;;;11.88;10.77;;;30.40;1.00;;;;;;5139969;27;19950;-49
2022/06/22 12:38:16;;;;;;;13.07;11.80;;;30.70;1.00;;;;;;5153435;27;20015;-50
2022/06/22 12:41:03;;;;;;;15.18;11.15;;;30.70;1.00;;;;;;5147294;27;20101;-48
2022/06/22 12:43:43;;;;;;;14.20;10.65;;;31.20;1.00;;;;;;5150563;27;20035;-49
2022/06/22 12:46:40;;;;;;;10.48;9.30;;;31.30;1.00;;;;;;5151055;27;20023;-50
2022/06/22 12:49:27;;;;;;;10.77;9.35;;;31.20;1.00;;;;;;5146410;27;20023;-48
2022/06/22 12:52:07;;;;;;;12.52;10.20;;;31.40;1.00;;;;;;5147422;27;20027;-51
2022/06/22 12:54:41;;;;;;;11.93;8.90;;;31.00;1.00;;;;;;5141512;27;20075;-49
2022/06/22 12:57:15;;;;;;;15.63;9.75;;;31.10;1.00;;;;;;5152163;27;20034;-52
2022/06/22 12:59:47;;;;;;;;;;;31.00;1.00;;;;;;5136522;27;20168;-53
2022/06/22 13:02:16;;;;;;;10.43;9.38;;;30.60;1.00;;;;;;5140977;27;20005;-50
2022/06/22 13:04:44;;;;;;;12.02;9.82;;;30.60;1.00;;;;;;5150867;27;20027;-51
2022/06/22 13:07:16;;;;;;;10.52;9.55;;;30.70;1.00;;;;;;5148223;27;20034;-49
2022/06/22 13:09:43;;;;;;;13.57;8.93;;;30.60;1.00;;;;;;5150304;27;20046;-49
2022/06/22 13:12:30;;;;;;;10.05;9.02;;;30.70;1.00;;;;;;5146736;27;20026;-51
2022/06/22 13:15:16;;;;;;;9.95;8.50;;;30.50;1.00;;;;;;5154113;27;20372;-50
2022/06/22 13:18:02;;;;;;;9.20;8.25;;;30.80;1.00;;;;;;5145566;27;20026;-51
2022/06/22 13:20:47;;;;;;;11.25;8.65;;;30.90;1.00;;;;;;5152600;27;20388;-49
2022/06/22 13:23:43;;;;;;;13.40;8.93;;;31.00;1.00;;;;;;5149923;27;20849;-49
2022/06/22 13:26:41;;;;;;;10.70;9.27;;;30.90;1.00;;;;;;5149869;27;20117;-49
2022/06/22 13:29:42;;;;;;;13.77;10.30;;;30.80;1.00;;;;;;5120582;27;20388;-51
2022/06/22 13:32:11;;;;;;;10.20;9.15;;;31.00;1.00;;;;;;5137114;27;20053;-48
2022/06/22 13:34:46;;;;;;;15.85;11.73;;;30.70;1.00;;;;;;5145571;27;20056;-49
2022/06/22 13:37:29;;;;;;;11.50;9.23;;;30.40;1.00;;;;;;5146461;27;20031;-52
2022/06/22 13:43:33;;;;;;;11.80;9.55;;;30.60;1.00;;;;;;5143120;27;20057;-47
2022/06/22 13:46:01;;;;;;;11.75;9.45;;;30.80;1.00;;;;;;5144942;27;20109;-49
2022/06/22 13:48:45;;;;;;;11.82;8.90;;;30.90;1.00;;;;;;5152487;27;20060;-48
2022/06/22 13:51:22;;;;;;;16.40;10.07;;;31.40;1.00;;;;;;5151412;27;20443;-49
2022/06/22 13:53:54;;;;;;;13.30;9.57;;;31.40;1.00;;;;;;5152624;27;20452;-50
2022/06/22 13:56:30;;;;;;;11.38;8.85;;;31.40;1.00;;;;;;5154074;27;20361;-54
2022/06/22 13:59:23;;;;;;;11.73;9.00;;;31.10;1.00;;;;;;5152862;27;20440;-53
2022/06/22 14:01:58;;;;;;;13.82;9.20;;;31.10;1.00;;;;;;5132610;27;20413;-55
2022/06/22 14:04:40;;;;;;;14.73;10.05;;;31.00;1.00;;;;;;5157480;27;20094;-53
2022/06/22 14:07:18;;;;;;;12.50;9.48;;;31.00;1.00;;;;;;5152535;27;20030;-51
2022/06/22 14:09:53;;;;;;;12.85;9.02;;;30.90;1.00;;;;;;5157717;27;20047;-50
2022/06/22 14:12:31;;;;;;;10.40;9.00;;;31.10;1.00;;;;;;5156555;27;20019;-49
2022/06/22 14:15:21;;;;;;;13.43;10.13;;;30.90;1.00;;;;;;5157995;27;20102;-49
2022/06/22 14:18:02;;;;;;;11.60;9.18;;;30.80;1.00;;;;;;5156584;27;20074;-48
2022/06/22 14:20:43;;;;;;;11.60;9.60;;;30.70;1.00;;;;;;5156941;27;20383;-48
2022/06/22 14:23:15;;;;;;;10.65;8.35;;;30.70;1.00;;;;;;5142459;27;20141;-50
2022/06/22 14:26:22;;;;;;;15.27;9.32;;;30.50;1.00;;;;;;5141166;27;20488;-48